Tiempo atmosférico en la estación meteorológica de Caravaca de La Cruz, Murcia (643 m.)

Fecha
DESCASC
Temp. máxima en grados centígrados (hora)
DESCASC
Temp. mínima en grados centígrados (hora)
DESCASC
Temp. media en grados centígrados
DESCASC
Racha de viento máxima en m/sg (hora)
DESCASC
Velocidad máxima media en intervalos de 10 minutos(hora)
DESCASC
Precipitaciones diarias en mm
DESCASC
Precipitaciones de 00:00 a 06:00 en mm
DESCASC
Precipitaciones de 06:00 a 12:00 en mm
DESCASC
Precipitaciones de 12:00 a 18:00 en mm
DESCASC
Precipitaciones de 18:00 a 24:00 en mm
DESCASC
17-08-2017 34 (15:20) 17.6 (07:10) 25.8 7.78 (17:40) 4.17 (17:40) 0 0 0 0 0
16-08-2017 35.5 (15:50) 17.1 (07:30) 26.3 7.5 (17:00) 3.89 (13:50) 0 0 0 0 0
15-08-2017 34.5 (16:10) 15.9 (00:00) 25.2 7.78 (16:00) 3.61 (15:10) 0 0 0 0 0
14-08-2017 29.8 (16:10) 13.4 (06:50) 21.6 8.61 (16:00) 4.44 (16:20) 0 0 0 0 0
13-08-2017 29.6 (16:10) 12.4 (00:00) 21 8.33 (17:10) 4.72 (17:20) 0 0 0 0 0
12-08-2017 29.7 (15:30) 14.4 (00:00) 22.1 8.61 (18:10) 5.28 (18:20) 0 0 0 0 0
11-08-2017 30 (15:30) 17.9 (00:00) 23.9 8.06 (14:40) 4.44 (16:30) 0 0 0 0 0
10-08-2017 27.5 (16:50) 17.8 (00:00) 22.6 7.22 (02:30) 4.17 (12:00) 0 0 0 0 0
09-08-2017 34.5 (15:50) 17.5 (00:00) 26 10.28 (17:30) 4.72 (17:40) 0 0 0 0 0
08-08-2017 38.5 (14:40) 22.5 (00:00) 30.5 11.39 (16:00) 5.56 (15:30) 0 0 0 0 0
07-08-2017 35.4 (17:10) 20.4 (00:00) 27.9 8.89 (19:20) 4.72 (19:00) 0 0 0 0 0
06-08-2017 34.1 (15:20) 18.7 (00:00) 26.4 9.17 (15:10) 5.83 (15:50) 0 0 0 0 0
05-08-2017 40.8 (15:30) 20 (00:00) 30.4 10.28 (16:50) 5.28 (16:50) 0 0 0 0 0
04-08-2017 40.1 (14:30) 20.5 (00:00) 30.3 9.17 (15:30) 5.28 (15:30) 0 0 0 0 0
03-08-2017 38.8 (15:50) 18.8 (00:00) 28.8 6.11 (15:10) 3.33 (13:00) 0 0 0 0 0
02-08-2017 33.3 (13:50) 20.1 (00:00) 26.7 10.28 (00:20) 5 (00:20) 0.2 0.2 0 0 0
01-08-2017 34.1 (17:40) 19.8 (00:00) 26.9 9.17 (20:30) 4.44 (20:20) 0 0 0 0 0
31-07-2017 37.2 (16:30) 18.1 (00:00) 27.7 10.83 (17:30) 4.72 (16:20) 0 0 0 0 0
30-07-2017 41.4 (14:40) 18.1 (00:00) 29.8 9.17 (14:00) 4.17 (17:30) 0 0 0 0 0
29-07-2017 38.1 (14:40) 16 (00:00) 27 8.89 (16:30) 4.72 (16:40) 0 0 0 0 0
28-07-2017 38.6 (14:00) 18.2 (00:00) 28.4 9.17 (17:40) 5.28 (15:00) 0 0 0 0 0
27-07-2017 37.6 (15:50) 17 (00:00) 27.3 8.33 (15:40) 4.72 (21:20) 0 0 0 0 0
26-07-2017 35.1 (16:20) 21.2 (00:00) 28.1 7.78 (19:30) 4.17 (19:50) 0 0 0 0 0
25-07-2017 32.8 (15:10) 17.6 (00:00) 25.2 9.17 (16:30) 5.28 (17:20) 0 0 0 0 0
24-07-2017 37.7 (15:30) 15.8 (00:00) 26.8 7.78 (18:20) 4.72 (16:20) 0 0 0 0 0
23-07-2017 34.1 (15:40) 18.2 (00:00) 26.1 6.94 (14:00) 4.44 (18:40) 0 0 0 0 0
22-07-2017 33.8 (16:20) 16.4 (00:00) 25.1 8.61 (15:50) 4.17 (16:30) 0 0 0 0 0
21-07-2017 33.4 (15:20) 19.6 (00:00) 26.5 7.78 (18:00) 4.17 (17:50) 0 0 0 0 0
20-07-2017 35.7 (15:00) 17.7 (00:00) 26.7 10.56 (16:50) 4.72 (16:20) 0 0 0 0 0
19-07-2017 34.6 (14:20) 18.2 (00:00) 26.4 8.33 (16:00) 4.72 (15:20) 0 0 0 0 0

Gráficas

Temp. máximas Temp. mínimas Temp. medias Precipitaciones Rachas de viento máximas Velocidades máximas media en intervalos de 10 minutos

Datos horarios

Fecha y hora oficial Temperatura (ºC) Velocidad del viento (km/h) Dirección del viento Racha (km/h) Dirección de racha Precipitación (mm) Presión (hPa) Tendencia (hPa) Humedad (%)
2017-08-17 23:00:00 24 5 Oeste 8 Norte 0 946.1 1.5 65
2017-08-17 22:00:00 25.8 5 Norte 11 Nordeste 0 945.6 1 59
2017-08-17 21:00:00 27.5 4 Norte 9 Sudoeste 0 945 0.5 54
2017-08-17 20:00:00 30.7 3 Sudeste 18 Este 0 944.6 -0.2 41
2017-08-17 19:00:00 31.6 9 Sudeste 27 Este 0 944.6 -0.6 38
2017-08-17 18:00:00 33.1 14 Este 28 Este 0 944.5 -1.3 34
2017-08-17 17:00:00 33.8 12 Nordeste 27 Nordeste 0 944.8 -1.6 34
2017-08-17 16:00:00 33.8 12 Este 22 Nordeste 0 945.2 -1.7 34
2017-08-17 15:00:00 33.3 10 Este 21 Nordeste 0 945.8 -1.3 40
2017-08-17 14:00:00 32.3 5 Nordeste 18 Nordeste 0 946.4 -0.7 43
2017-08-17 13:00:00 30.8 5 Nordeste 18 Este 0 946.9 -0.1 48
2017-08-17 12:00:00 29.8 8 Este 17 Este 0 947.1 0.2 51
2017-08-17 11:00:00 28.4 6 Este 12 Este 0 947.1 0.5 52
2017-08-17 10:00:00 25.6 4 Sudoeste 16 Sudoeste 0 947 0.5 54
2017-08-17 09:00:00 21.3 10 Sudoeste 17 Oeste 0 946.9 0.9 62
2017-08-17 08:00:00 18.7 6 Oeste 10 Oeste 0 946.6 0.6 82
2017-08-17 07:00:00 17.7 2 Noroeste 8 Sudoeste 0 946.5 0.6 81
2017-08-17 06:00:00 18.2 0 Calma 4 Oeste 0 946 0.2 79
2017-08-17 05:00:00 18.9 3 Oeste 8 Sudoeste 0 946 0 76
2017-08-17 04:00:00 20.1 4 Oeste 9 Nordeste 0 945.9 -0.1 80
2017-08-17 03:00:00 21.8 4 Sudeste 10 Sudoeste 0 945.8 -0.1 73
2017-08-17 02:00:00 23.3 4 Sur 14 Oeste 0 946 0.2 71
2017-08-17 01:00:00 24.3 9 Oeste 14 Oeste 0 946 0.6 66
2017-08-17 00:00:00 25.8 9 Sudoeste 17 Sudoeste 0 945.9 0.9 63
2017-08-16 23:00:00 26.6 8 Sudoeste 13 Sudoeste 0 945.8 1.4 59
2017-08-16 22:00:00 27 4 Oeste 10 Oeste 0 945.4 1.2 59
2017-08-16 21:00:00 28.4 4 Noroeste 10 Nordeste 0 945 0.7 54
2017-08-16 20:00:00 31.1 3 Sur 26 Este 0 944.4 0.1 47
2017-08-16 19:00:00 32.5 11 Este 24 Este 0 944.2 -0.4 39
2017-08-16 18:00:00 33.6 12 Este 22 Este 0 944.3 -0.8 33
2017-08-16 17:00:00 34.2 13 Este 27 Este 0 944.3 -1.3 28
2017-08-16 16:00:00 35.2 12 Este 24 Este 0 944.6 -1.5 28
2017-08-16 15:00:00 34.6 10 Nordeste 23 Este 0 945.1 -1.5 23
2017-08-16 14:00:00 34.4 10 Este 24 Sudeste 0 945.6 -1 26
2017-08-16 13:00:00 32.4 11 Este 18 Este 0 946.1 -0.5 38
2017-08-16 12:00:00 30.4 9 Sudeste 15 Este 0 946.6 0.1 44
2017-08-16 11:00:00 28.7 5 Sudeste 11 Este 0 946.6 0.6 52
2017-08-16 10:00:00 26.1 3 Sudeste 7 Este 0 946.6 1.1 62
2017-08-16 09:00:00 21.6 0 Calma 3 Oeste 0 946.5 1.3 74
2017-08-16 08:00:00 17.4 3 Norte 6 Oeste 0 946 0.6 83
2017-08-16 07:00:00 17.6 2 Oeste 17 Sudoeste 0 945.5 -0.2 82
2017-08-16 06:00:00 19.2 10 Sudoeste 17 Sudoeste 0 945.2 -0.6 71
2017-08-16 05:00:00 19.9 6 Oeste 10 Oeste 0 945.4 -0.6 76
2017-08-16 04:00:00 19.4 2 Oeste 8 Sudoeste 0 945.7 -0.7 79
2017-08-16 03:00:00 21 5 Sudoeste 14 Oeste 0 945.8 -0.3 72
2017-08-16 02:00:00 22.7 10 Oeste 16 Oeste 0 946 0.2 71
2017-08-16 01:00:00 22.5 5 Oeste 14 Oeste 0 946.4 1.3 68
2017-08-16 00:00:00 23.7 9 Oeste 18 Sudoeste 0 946.1 1.6 65
2017-08-15 23:00:00 24.6 7 Sudoeste 17 Sudoeste 0 945.8 2 63
2017-08-15 22:00:00 25.1 8 Sudoeste 12 Sudoeste 0 945.1 1.1 59
2017-08-15 21:00:00 26.4 2 Sur 6 Este 0 944.5 0.5 63
2017-08-15 20:00:00 27.4 3 Noroeste 11 Nordeste 0 943.8 -0.2 58
2017-08-15 19:00:00 28.1 5 Nordeste 14 Este 0 944 0.1 53
2017-08-15 18:00:00 29.5 7 Nordeste 20 Nordeste 0 944 -0.5 46
2017-08-15 17:00:00 30.8 10 Nordeste 21 Nordeste 0 944 -1.1 35
2017-08-15 16:00:00 33.9 11 Nordeste 28 Nordeste 0 943.9 -1.6 27
2017-08-15 15:00:00 33.6 9 Este 22 Sudeste 0 944.5 -1.6 27
2017-08-15 14:00:00 32.7 9 Este 21 Sudeste 0 945.1 -1 29
2017-08-15 13:00:00 31.6 7 Este 15 Este 0 945.5 -0.6 26
2017-08-15 12:00:00 28.6 8 Este 16 Este 0 946.1 0.5 29
2017-08-15 11:00:00 26.7 5 Este 9 Este 0 946.1 1.2 31
2017-08-15 10:00:00 23.2 0 Calma 9 Sudeste 0 946.1 1.4 41
2017-08-15 09:00:00 21.2 3 Nordeste 10 Oeste 0 945.6 0.9 47
2017-08-15 08:00:00 17.2 3 Sudoeste 10 Oeste 0 944.9 -0.1 63
2017-08-15 07:00:00 17.4 3 Noroeste 10 Sudoeste 0 944.7 -0.7 56
2017-08-15 06:00:00 17 5 Noroeste 12 Oeste 0 944.7 -0.7 52
2017-08-15 05:00:00 16.7 0 Calma 9 Sudoeste 0 945 -0.9 50
2017-08-15 04:00:00 15.9 4 Noroeste 8 Oeste 0 945.4 -0.5 54
2017-08-15 03:00:00 16.9 3 Noroeste 7 Sudoeste 0 945.4 -0.6 53
2017-08-15 02:00:00 17.8 3 Oeste 8 Norte 0 945.9 0.5 54
2017-08-15 01:00:00 19.4 4 Norte 11 Norte 0 945.9 1.5 55
2017-08-15 00:00:00 20.6 6 Norte 11 Norte 0 946 2.2 49
2017-08-14 23:00:00 21.5 5 Norte 10 Norte 0 945.4 2 54
2017-08-14 22:00:00 22.8 5 Norte 12 Norte 0 944.4 1.3 50
2017-08-14 21:00:00 24.5 6 Norte 18 Nordeste 0 943.8 0.7 34
2017-08-14 20:00:00 26.8 7 Nordeste 23 Nordeste 0 943.4 0 29
2017-08-14 19:00:00 28 13 Este 26 Nordeste 0 943.1 -0.8 30
2017-08-14 18:00:00 29.3 13 Este -- -- 0 943.1 -1.2 32
2017-08-14 17:00:00 29.1 13 Este 29 Nordeste 0 943.4 -1.4 38
2017-08-14 16:00:00 29.7 14 Este 31 Nordeste 0 943.9 -1.4 38
2017-08-14 15:00:00 29.2 11 Este 26 Este 0 944.3 -1.2 39
2017-08-14 14:00:00 28.4 13 Este 25 Este 0 944.8 -0.6 44
2017-08-14 13:00:00 26.9 9 Este 23 Este 0 945.3 -0.3 46
2017-08-14 12:00:00 26.2 12 Este 21 Sudeste 0 945.5 0.4 46
2017-08-14 11:00:00 24.5 7 Nordeste 15 Nordeste 0 945.4 0.5 53
2017-08-14 10:00:00 22.6 3 Este 10 Este 0 945.6 1.4 60
2017-08-14 09:00:00 19.2 3 Sur 10 Oeste 0 945.1 0.6 67
2017-08-14 08:00:00 14.2 3 Oeste 9 Sudoeste 0 944.9 0.1 78
2017-08-14 07:00:00 13.4 2 Oeste 8 Noroeste 0 944.2 -0.8 73
2017-08-14 06:00:00 14.3 6 Oeste 9 Sudoeste 0 944.5 -0.6 72
2017-08-14 05:00:00 15.8 5 Oeste 14 Oeste 0 944.8 -1 64
2017-08-14 04:00:00 18 3 Oeste 9 Oeste 0 945 -0.9 80
2017-08-14 03:00:00 18.9 2 Noroeste 6 Oeste 0 945.1 -0.6 79
2017-08-14 02:00:00 19.4 0 Calma 8 Norte 0 945.8 0.5 80
2017-08-14 01:00:00 18.6 5 Norte 12 Nordeste 0 945.9 1.3 81
2017-08-14 00:00:00 19.3 5 Norte 11 Norte 0 945.7 1.7 72
2017-08-13 23:00:00 20.1 5 Norte 13 Norte 0 945.3 1.7 69
2017-08-13 22:00:00 21.5 6 Norte 14 Norte 0 944.6 1 64
2017-08-13 21:00:00 23.4 8 Nordeste 22 Nordeste 0 944 0.1 54
2017-08-13 20:00:00 25.8 12 Este 26 Este 0 943.6 -0.5 38
2017-08-13 19:00:00 27.6 14 Este 30 Nordeste 0 943.6 -0.9 33
2017-08-13 18:00:00 28.7 14 Este 30 Este 0 943.9 -1.2 32
2017-08-13 17:00:00 29.2 13 Este 26 Este 0 944.1 -1.6 34
2017-08-13 16:00:00 29.4 13 Este 30 Este 0 944.5 -1.9 36
2017-08-13 15:00:00 28.5 13 Este 29 Nordeste 0 945.1 -1.5 38
2017-08-13 14:00:00 28.5 12 Este 23 Nordeste 0 945.7 -1 36
2017-08-13 13:00:00 27.2 8 Este 17 Nordeste 0 946.4 -0.1 40
2017-08-13 12:00:00 26.3 6 Este 15 Este 0 946.6 0.2 43
2017-08-13 11:00:00 24 7 Este 15 Este 0 946.7 0.7 52
2017-08-13 10:00:00 22.5 5 Nordeste 12 Nordeste 0 946.5 0.7 53
2017-08-13 09:00:00 18.6 2 Nordeste 5 Nordeste 0 946.4 0.5 60
2017-08-13 08:00:00 13 2 Sudoeste 6 Oeste 0 946 0 79
2017-08-13 07:00:00 13.3 3 Oeste 15 Oeste 0 945.8 -0.4 77
2017-08-13 06:00:00 13.6 6 Sudoeste 10 Oeste 0 945.9 -0.8 77
2017-08-13 05:00:00 13.9 5 Oeste 10 Oeste 0 946 -1.1 78
2017-08-13 04:00:00 15.1 7 Oeste 11 Oeste 0 946.2 -1.2 73
2017-08-13 03:00:00 14.7 2 Oeste 8 Oeste 0 946.7 -0.9 75
2017-08-13 02:00:00 15.4 3 Noroeste 6 Noroeste 0 947.1 -0.4 72
2017-08-13 01:00:00 16.1 4 Noroeste 6 Noroeste 0 947.4 0.4 67
2017-08-13 00:00:00 17.6 5 Noroeste 7 Norte 0 947.6 0.9 61
2017-08-12 23:00:00 18.8 4 Noroeste 9 Norte 0 947.5 1.3 56
2017-08-12 22:00:00 20.9 3 Norte 11 Sudeste 0 947 1.2 48
2017-08-12 21:00:00 23.4 6 Nordeste 23 Este 0 946.7 0.9 37
2017-08-12 20:00:00 25.4 14 Este 30 Este 0 946.2 0.2 34
2017-08-12 19:00:00 27.4 16 Este 31 Este 0 945.8 -0.7 31
2017-08-12 18:00:00 28.3 14 Nordeste 31 Este 0 945.8 -1.4 33
2017-08-12 17:00:00 29.3 13 Este 25 Este 0 946 -1.8 33
2017-08-12 16:00:00 29.3 13 Este 22 Este 0 946.5 -1.8 34
2017-08-12 15:00:00 28.7 9 Este 22 Este 0 947.2 -1.6 35
2017-08-12 14:00:00 27.3 11 Nordeste 25 Nordeste 0 947.8 -1.2 39
2017-08-12 13:00:00 26.7 5 Nordeste 21 Este 0 948.3 -0.6 40
2017-08-12 12:00:00 24.9 9 Nordeste 22 Nordeste 0 948.8 0.1 45
2017-08-12 11:00:00 23.3 6 Nordeste 17 Este 0 949 0.7 51
2017-08-12 10:00:00 22.8 4 Este 9 Este 0 948.9 1.2 51
2017-08-12 09:00:00 18.8 2 Sudeste 14 Oeste 0 948.7 1.2 60
2017-08-12 08:00:00 14.7 4 Oeste 18 Oeste 0 948.3 0.4 77
2017-08-12 07:00:00 14.5 11 Sudoeste 15 Sudoeste 0 947.7 -0.3 80
2017-08-12 06:00:00 15 4 Oeste 11 Sudoeste 0 947.5 -0.5 84
2017-08-12 05:00:00 15.8 3 Norte 9 Norte 0 947.9 -0.3 88
2017-08-12 04:00:00 15.9 5 Norte 10 Norte 0 948 -0.1 86
2017-08-12 03:00:00 15.3 3 Noroeste 7 Noroeste 0 948 0.2 80
2017-08-12 02:00:00 16 4 Noroeste 6 Noroeste 0 948.2 0.7 78
2017-08-12 01:00:00 17.1 5 Norte 9 Norte 0 948.1 1.4 75
2017-08-12 00:00:00 18.4 4 Norte 11 Norte 0 947.8 2 69
2017-08-11 23:00:00 19.7 5 Norte 11 Norte 0 947.5 2 62
2017-08-11 22:00:00 21 5 Norte 10 Este 0 946.7 1.5 59
2017-08-11 21:00:00 23.3 3 Este 19 Este 0 945.8 0.5 50
2017-08-11 20:00:00 25.2 14 Este 27 Este 0 945.5 -0.1 42
2017-08-11 19:00:00 26.9 16 Este 28 Este 0 945.2 -0.8 37
2017-08-11 18:00:00 28.2 14 Este 25 Este 0 945.3 -1.1 33
2017-08-11 17:00:00 28.7 14 Este 26 Este 0 945.6 -1.2 30
2017-08-11 16:00:00 29.2 10 Nordeste 27 Este 0 946 -1.5 29
2017-08-11 15:00:00 29.5 12 Este 29 Nordeste 0 946.4 -1.5 32
2017-08-11 14:00:00 28.8 12 Este 24 Este 0 946.8 -1.3 33
2017-08-11 13:00:00 27.9 7 Este 21 Este 0 947.5 -0.5 36
2017-08-11 12:00:00 26.5 6 Sudeste 15 Sudeste 0 947.9 0 44
2017-08-11 11:00:00 24.8 4 Sudeste 12 Nordeste 0 948.1 0.3 52
2017-08-11 10:00:00 23 7 Este 12 Nordeste 0 948 0.4 59
2017-08-11 09:00:00 19.9 4 Nordeste 9 Nordeste 0 947.9 0.4 74
2017-08-11 08:00:00 18 4 Nordeste 9 Nordeste 0 947.8 0.1 81
2017-08-11 07:00:00 18.6 4 Nordeste 14 Sur 0 947.6 -0.2 77
2017-08-11 06:00:00 19.3 5 Sur 14 Sur 0 947.5 -0.8 72
2017-08-11 05:00:00 19.4 4 Sur 13 Sudoeste 0 947.7 -0.9 75
2017-08-11 04:00:00 19.5 7 Sudoeste 13 Sudoeste 0 947.8 -1.1 74
2017-08-11 03:00:00 19.3 3 Sur 11 Sudoeste 0 948.3 -0.4 75
2017-08-11 02:00:00 18.9 7 Sudoeste 13 Sudoeste 0 948.6 0.2 78
2017-08-11 01:00:00 19.1 6 Oeste 13 Sudoeste 0 948.9 1.3 77
2017-08-11 00:00:00 18.8 3 Sudoeste 11 Oeste 0 948.7 1.7 77
2017-08-10 23:00:00 19.8 6 Oeste 15 Sudoeste 0 948.4 1.7 72
2017-08-10 22:00:00 20.9 9 Oeste 17 Oeste 0 947.6 1.1 67
2017-08-10 21:00:00 21.9 5 Sur 12 Este 0 947 0.6 64
2017-08-10 20:00:00 23 9 Este 24 Este 0 946.7 0.1 60
2017-08-10 19:00:00 24.3 13 Este 25 Este 0 946.5 -0.4 54
2017-08-10 18:00:00 25.8 14 Este 26 Este 0 946.4 -0.8 51
2017-08-10 17:00:00 27.2 11 Este 21 Sudeste 0 946.6 -1.2 46
2017-08-10 16:00:00 26.2 8 Nordeste 21 Nordeste 0 946.9 -1.2 45
2017-08-10 15:00:00 26.5 8 Este 20 Este 0 947.2 -1.2 43
2017-08-10 14:00:00 25.1 9 Sudeste 19 Sudeste 0 947.8 -0.2 48
2017-08-10 13:00:00 23 5 Nordeste 20 Nordeste 0 948.1 0.6 50
2017-08-10 12:00:00 19.4 15 Nordeste 24 Este 0 948.4 1.2 60
2017-08-10 11:00:00 19.4 10 Nordeste 19 Nordeste 0 948 1.3 61
2017-08-10 10:00:00 18.1 7 Nordeste 17 Nordeste 0 947.5 1.7 66
2017-08-10 09:00:00 18 8 Nordeste 16 Nordeste 0 947.2 2.2 66
2017-08-10 08:00:00 17.9 9 Nordeste 20 Nordeste 0 946.7 2.1 69
2017-08-10 07:00:00 18.2 10 Nordeste 23 Nordeste 0 945.8 1.6 69
2017-08-10 06:00:00 18.5 8 Nordeste 19 Nordeste 0 945 1.1 70
2017-08-10 05:00:00 18.7 8 Nordeste 19 Este 0 944.6 1.1 74
2017-08-10 04:00:00 19.3 10 Nordeste 23 Nordeste 0 944.2 1.1 76
2017-08-10 03:00:00 19.6 8 Norte 26 Nordeste 0 943.9 1 81
2017-08-10 02:00:00 21.9 11 Nordeste 23 Nordeste 0 943.5 1 75
2017-08-10 01:00:00 23 8 Nordeste 21 Este 0 943.1 1.8 79
2017-08-10 00:00:00 23.2 11 Este 22 Este 0 942.9 2.7 76
2017-08-09 23:00:00 23.6 9 Este 18 Este 0 942.5 3 78
2017-08-09 22:00:00 24.4 6 Nordeste 17 Nordeste 0 941.3 2 72
2017-08-09 21:00:00 26.2 8 Este 15 Nordeste 0 940.2 0.8 64
2017-08-09 20:00:00 27.6 8 Este 31 Este 0 939.5 0.1 55
2017-08-09 19:00:00 30.4 9 Este 29 Este 0 939.3 -0.3 36
2017-08-09 18:00:00 31.4 15 Este 37 Este 0 939.4 -0.6 32
2017-08-09 17:00:00 32.3 14 Este 26 Este 0 939.4 -1.3 29
2017-08-09 16:00:00 31.8 14 Nordeste 32 Este 0 939.6 -1.8 29
2017-08-09 15:00:00 33.7 11 Sur 22 Sudeste 0 940 -2 21
2017-08-09 14:00:00 31.7 6 Sudeste 22 Sur 0 940.7 -1.5 29
2017-08-09 13:00:00 30.3 5 Sudeste 20 Este 0 941.4 -1 38
2017-08-09 12:00:00 29.2 9 Sudeste 19 Sudeste 0 942 -0.3 39
2017-08-09 11:00:00 27.3 7 Sudeste 16 Sudeste 0 942.2 -0.2 49
2017-08-09 10:00:00 25.3 6 Este 12 Este 0.4 942.4 0.1 53
2017-08-09 09:00:00 22.8 3 Noroeste 9 Noroeste 0 942.3 0.3 65
2017-08-09 08:00:00 19 6 Noroeste 9 Noroeste 0 942.4 0.3 75
2017-08-09 07:00:00 17.7 3 Noroeste 8 Noroeste 0 942.3 0.1 84
2017-08-09 06:00:00 18.3 4 Noroeste 6 Noroeste 0 942 -0.7 84
2017-08-09 05:00:00 19 4 Noroeste 8 Noroeste 0 942.1 -0.8 81
2017-08-09 04:00:00 20.2 3 Norte 13 Este 0 942.2 -0.5 78
2017-08-09 03:00:00 21.5 7 Este 16 Norte 0 942.7 0 77
2017-08-09 02:00:00 21.3 6 Norte 14 Norte 0 942.9 0.8 78
2017-08-09 01:00:00 22.1 6 Norte 15 Nordeste 0 942.7 0.9 75
2017-08-09 00:00:00 23.6 8 Nordeste 17 Nordeste 0 942.7 2.5 76
2017-08-08 23:00:00 24.3 6 Nordeste 19 Nordeste 0 942.1 3.1 75
2017-08-08 22:00:00 25.9 12 Nordeste 25 Nordeste 0 941.8 3 67
2017-08-08 21:00:00 28.1 10 Nordeste 26 Nordeste 0 940.2 1.4 49
2017-08-08 20:00:00 34 12 Sudoeste 24 Sudoeste 0 939 0.1 7
2017-08-08 19:00:00 35.2 15 Sudoeste 38 Sudoeste 0 938.8 -0.1 7
2017-08-08 18:00:00 35.9 17 Oeste 37 Sudoeste 0 938.8 -0.1 7
2017-08-08 17:00:00 36.6 13 Sudoeste 36 Sudoeste 0 938.9 -0.4 8
2017-08-08 16:00:00 37.4 18 Oeste 41 Oeste 0 938.9 -0.8 8
2017-08-08 15:00:00 37.6 14 Oeste 35 Oeste 0 938.9 -1.2 8
2017-08-08 14:00:00 37.2 8 Sudoeste 27 Sudoeste 0 939.3 -0.6 11
2017-08-08 13:00:00 33.3 8 Nordeste 17 Este 0 939.7 0.1 26
2017-08-08 12:00:00 30.1 7 Este 18 Nordeste 0 940.1 0.6 38
2017-08-08 11:00:00 28.9 12 Nordeste 21 Este 0 939.9 0.9 42
2017-08-08 10:00:00 28.7 5 Este 12 Este 0 939.6 1.1 46
2017-08-08 09:00:00 26.2 4 Sur 9 Nordeste 0 939.5 1 61
2017-08-08 08:00:00 23.7 3 Norte 13 Sudoeste 0 939 0.1 49
2017-08-08 07:00:00 25.9 10 Sudoeste 18 Sudoeste 0 938.5 -0.9 33
2017-08-08 06:00:00 23.7 8 Sudoeste 19 Sudoeste 0 938.5 -1.3 36
2017-08-08 05:00:00 24.1 15 Oeste 24 Oeste 0 938.9 -1.5 34
2017-08-08 04:00:00 25.3 17 Oeste 25 Oeste 0 939.4 -1.4 32
2017-08-08 03:00:00 25.9 14 Oeste 26 Oeste 0 939.8 -1 33
2017-08-08 02:00:00 26.4 16 Oeste 26 Oeste 0 940.4 -0.4 39
2017-08-08 01:00:00 26.4 15 Oeste 26 Sudoeste 0 940.8 0.1 43
2017-08-08 00:00:00 27.7 12 Sudoeste 26 Oeste 0 940.8 0.7 39
2017-08-07 23:00:00 29.1 13 Sudoeste 24 Sudoeste 0 940.8 0.3 35
2017-08-07 22:00:00 29.7 9 Sudoeste 19 Oeste 0 940.7 -0.2 31
2017-08-07 21:00:00 31.1 10 Sudoeste 24 Oeste 0 940.1 -0.5 27
2017-08-07 20:00:00 30.6 15 Sudoeste 32 Oeste 0 940.5 -0.2 31
2017-08-07 19:00:00 31.5 17 Sudoeste 31 Sudoeste 0 940.9 -0.7 31
2017-08-07 18:00:00 33.4 13 Este 29 Nordeste 0 940.6 -1.5 42
2017-08-07 17:00:00 35.3 9 Nordeste 20 Nordeste 0 940.7 -2.2 36
2017-08-07 16:00:00 32.8 11 Nordeste 23 Este 0 941.6 -1.9 44
2017-08-07 15:00:00 33.3 12 Este 22 Este 0 942.1 -1.6 44
2017-08-07 14:00:00 33.4 10 Este 18 Este 0 942.9 -0.5 42
2017-08-07 13:00:00 31.9 8 Este 18 Nordeste 0 943.5 0.2 46
2017-08-07 12:00:00 29.3 12 Este 18 Este 0 943.7 0.3 55
2017-08-07 11:00:00 28 6 Este 13 Este 0 943.4 0 60
2017-08-07 10:00:00 25.3 4 Sudeste 18 Sudoeste 0 943.3 -0.1 69
2017-08-07 09:00:00 23.7 5 Sur 12 Sudoeste 0 943.4 -0.2 74
2017-08-07 08:00:00 20.7 7 Sudoeste 12 Oeste 0 943.4 -0.2 83
2017-08-07 07:00:00 20.6 6 Sudoeste 10 Oeste 0 943.4 -0.1 84
2017-08-07 06:00:00 21.5 5 Oeste 9 Oeste 0 943.6 -0.2 81
2017-08-07 05:00:00 21.6 2 Oeste 7 Sudoeste 0 943.6 -0.8 83
2017-08-07 04:00:00 23.4 0 Calma 6 Nordeste 0 943.5 -1.2 80
2017-08-07 03:00:00 24.1 3 Nordeste 8 Sur 0 943.8 -0.9 76
2017-08-07 02:00:00 24.7 4 Sudoeste 11 Sudoeste 0 944.4 -0.2 73
2017-08-07 01:00:00 24.3 0 Calma 4 Oeste 0 944.7 0.5 75
2017-08-07 00:00:00 23.8 0 Calma 5 Norte 0 944.7 1 77
2017-08-06 23:00:00 24 3 Nordeste 11 Nordeste 0 944.6 1.6 76
2017-08-06 22:00:00 25 5 Nordeste 20 Nordeste 0 944.2 1.3 69
2017-08-06 21:00:00 26.5 6 Este 27 Este 0 943.7 0.9 63
2017-08-06 20:00:00 28.6 13 Este 28 Este 0 943 0.3 54
2017-08-06 19:00:00 29.9 14 Este 32 Este 0 942.9 0 50
2017-08-06 18:00:00 31.4 16 Este 32 Este 0 942.8 -0.3 45
2017-08-06 17:00:00 32.4 16 Este 32 Sudeste 0 942.7 -0.6 46
2017-08-06 16:00:00 32.9 17 Este 33 Nordeste 0 942.9 -0.9 45
2017-08-06 15:00:00 33.2 15 Este 30 Este 0 943.1 -1 42
2017-08-06 14:00:00 33.2 11 Este 28 Nordeste 0 943.3 -0.6 41
2017-08-06 13:00:00 33.4 12 Este 23 Este 0 943.8 0.2 36
2017-08-06 12:00:00 31.2 10 Este 19 Nordeste 0 944.1 1 38
2017-08-06 11:00:00 29.7 8 Este 18 Este 0 943.9 1.3 40
2017-08-06 10:00:00 28 6 Este 11 Nordeste 0 943.6 1.5 48
2017-08-06 09:00:00 24.7 3 Este 11 Oeste 0 943.1 0.9 42
2017-08-06 08:00:00 20.3 2 Sur 18 Oeste 0 942.6 0.5 58
2017-08-06 07:00:00 19.9 8 Sudoeste 14 Oeste 0 942.1 -0.1 58
2017-08-06 06:00:00 18.8 4 Oeste 5 Oeste 0 942.2 -0.2 64
2017-08-06 05:00:00 19.6 0 Calma 10 Sudoeste 0 942.1 -0.5 60
2017-08-06 04:00:00 21 4 Sudoeste 6 Sudoeste 0 942.2 -0.2 54
2017-08-06 03:00:00 23.9 5 Oeste 16 Oeste 0 942.4 -0.1 43
2017-08-06 02:00:00 24.3 5 Sudoeste 20 Sudoeste 0 942.6 0.2 43
2017-08-06 01:00:00 26.3 14 Sudoeste 23 Sudoeste 0 942.4 0.8 36
2017-08-06 00:00:00 27.7 14 Sudoeste 23 Sudoeste 0 942.5 1.4 33
2017-08-05 23:00:00 28.9 12 Sudoeste 22 Sudoeste 0 942.4 1.6 32
2017-08-05 22:00:00 30 13 Oeste 24 Sudoeste 0 941.6 1 29
2017-08-05 21:00:00 31.7 15 Oeste 26 Sudoeste 0 941.1 0.5 26
2017-08-05 20:00:00 33.8 13 Sudoeste 29 Sur 0 940.8 0.1 23
2017-08-05 19:00:00 35.9 9 Sur 36 Sur 0 940.6 -0.6 18
2017-08-05 18:00:00 36.2 16 Sur 33 Sudoeste 0 940.6 -1.2 14
2017-08-05 17:00:00 38.7 16 Sur 37 Sur 0 940.7 -2 14
2017-08-05 16:00:00 40.1 11 Sur 27 Sur 0 941.2 -2.1 14
2017-08-05 15:00:00 40.2 10 Sur 23 Sudeste 0 941.8 -1.8 14
2017-08-05 14:00:00 37.3 11 Este 21 Nordeste 0 942.7 -1.1 24
2017-08-05 13:00:00 35.5 8 Nordeste 19 Este 0 943.3 -0.4 25
2017-08-05 12:00:00 35.1 7 Este 13 Nordeste 0 943.6 0 23
2017-08-05 11:00:00 32.3 6 Este 12 Sudeste 0 943.8 0.5 30
2017-08-05 10:00:00 30 3 Este 7 Este 0 943.7 0.6 33
2017-08-05 09:00:00 25.6 2 Este 11 Oeste 0 943.6 1 45
2017-08-05 08:00:00 20.5 3 Oeste 11 Oeste 0 943.3 0.7 54
2017-08-05 07:00:00 20.3 3 Oeste 13 Sudoeste 0 943.1 0.4 48
2017-08-05 06:00:00 22.3 5 Oeste 22 Oeste 0 942.6 -0.4 41
2017-08-05 05:00:00 21.3 2 Noroeste 13 Sudoeste 0 942.6 -0.7 47
2017-08-05 04:00:00 24.1 10 Sudoeste 16 Sudoeste 0 942.7 -0.8 35
2017-08-05 03:00:00 25.3 11 Sudoeste 15 Sudoeste 0 943 -0.7 33
2017-08-05 02:00:00 27.2 10 Oeste 17 Noroeste 0 943.3 -0.1 30
2017-08-05 01:00:00 28.4 11 Oeste 17 Oeste 0 943.5 0.6 28
2017-08-05 00:00:00 27.9 8 Sudoeste 13 Sudoeste 0 943.7 1.5 29
2017-08-04 23:00:00 30.2 9 Sudoeste 19 Sudoeste 0 943.4 1.7 25
2017-08-04 22:00:00 31.3 7 Oeste 22 Oeste 0 942.9 1.5 24
2017-08-04 21:00:00 32.8 9 Sudoeste 21 Sudeste 0 942.2 0.6 24
2017-08-04 20:00:00 35 11 Sur 26 Sur 0 941.7 -0.1 22
2017-08-04 19:00:00 36.6 9 Sudeste 26 Este 0 941.4 -0.6 23
2017-08-04 18:00:00 36.9 12 Este 28 Este 0 941.6 -0.9 24
2017-08-04 17:00:00 38.5 13 Este 32 Este 0 941.8 -1.2 22
2017-08-04 16:00:00 38.4 18 Este 33 Este 0 942 -1.5 21
2017-08-04 15:00:00 39.4 13 Este 27 Este 0 942.5 -1.4 19
2017-08-04 14:00:00 39.1 10 Nordeste 20 Este 0 943 -1 15
2017-08-04 13:00:00 37.9 11 Este 21 Este 0 943.5 -0.5 16
2017-08-04 12:00:00 37.3 8 Este 16 Este 0 943.9 0.1 18
2017-08-04 11:00:00 34.6 3 Sudeste 10 Sudeste 0 944 0.4 25
2017-08-04 10:00:00 31 2 Nordeste 7 Sudoeste 0 944 0.6 33
2017-08-04 09:00:00 26.7 4 Sudoeste 11 Oeste 0 943.8 0.6 49
2017-08-04 08:00:00 22.6 8 Oeste 14 Oeste 0 943.6 0.5 54
2017-08-04 07:00:00 22.4 9 Oeste 20 Oeste 0 943.4 0.2 54
2017-08-04 06:00:00 22.1 9 Oeste 15 Oeste 0 943.2 -0.1 56
2017-08-04 05:00:00 21.5 6 Oeste 10 Sudoeste 0 943.1 -0.7 58
2017-08-04 04:00:00 22.8 4 Oeste 21 Sudoeste 0 943.2 -0.9 53
2017-08-04 03:00:00 24.8 14 Sudoeste 21 Sudoeste 0 943.3 -0.8 48
2017-08-04 02:00:00 24.1 4 Oeste 8 Sudoeste 0 943.8 -0.1 51
2017-08-04 01:00:00 27 5 Sudoeste 11 Oeste 0 944.1 1 41
2017-08-04 00:00:00 28.6 6 Sudoeste 15 Oeste 0 944.1 1.6 36
2017-08-03 23:00:00 29.8 8 Oeste 21 Oeste 0 943.9 2 34
2017-08-03 22:00:00 31.3 10 Oeste 21 Oeste 0 943.1 1.6 32
2017-08-03 21:00:00 33.1 8 Sudoeste 20 Sudoeste 0 942.5 0.8 31
2017-08-03 20:00:00 35.4 9 Sur 21 Este 0 941.9 -0.3 28
2017-08-03 19:00:00 37.2 9 Este 18 Nordeste 0 941.5 -1.3 18
2017-08-03 18:00:00 38 8 Este 19 Este 0 941.7 -1.7 14
2017-08-03 17:00:00 38.5 8 Este 19 Este 0 942.2 -1.9 13
2017-08-03 16:00:00 38.5 9 Sudeste 22 Sudeste 0 942.8 -2 14
2017-08-03 15:00:00 37.4 8 Este 17 Este 0 943.4 -1.8 14
2017-08-03 14:00:00 36.8 6 Nordeste 22 Nordeste 0 944.1 -1.5 15
2017-08-03 13:00:00 35.5 12 Este 22 Sudeste 0 944.8 -0.8 22
2017-08-03 12:00:00 33.3 8 Este 18 Este 0 945.2 -0.1 29
2017-08-03 11:00:00 30.9 5 Este 11 Nordeste 0 945.6 0.5 43
2017-08-03 10:00:00 28.6 6 Sudeste 11 Sudeste 0 945.6 1 51
2017-08-03 09:00:00 25.3 2 Este 14 Oeste 0 945.3 0.9 54
2017-08-03 08:00:00 20.8 10 Oeste 15 Oeste 0 945.1 0.8 61
2017-08-03 07:00:00 19.6 5 Oeste 16 Sudoeste 0 944.6 0.2 75
2017-08-03 06:00:00 20.6 6 Sudoeste 9 Oeste 0 944.4 -0.2 78
2017-08-03 05:00:00 20.3 4 Oeste 8 Oeste 0 944.3 -0.5 81
2017-08-03 04:00:00 20.8 4 Oeste 7 Oeste 0 944.4 -0.5 79
2017-08-03 03:00:00 20.8 4 Noroeste 6 Noroeste 0 944.6 -0.5 76
2017-08-03 02:00:00 21.9 4 Noroeste 6 Noroeste 0 944.8 -0.5 73
2017-08-03 01:00:00 23.1 3 Noroeste 12 Sudoeste 0 944.9 0.1 68
2017-08-03 00:00:00 24.7 5 Sudoeste 9 Oeste 0 945.1 1.1 61
2017-08-02 23:00:00 25.4 4 Norte 9 Norte 0 945.3 2.2 60
2017-08-02 22:00:00 26.9 5 Norte 16 Este 0 944.8 1.8 54
2017-08-02 21:00:00 28.8 8 Este 19 Este 0 944 0.9 48
2017-08-02 20:00:00 30.1 10 Este 22 Este 0 943.1 0 45
2017-08-02 19:00:00 31.4 12 Este 28 Este 0 943 -0.5 42
2017-08-02 18:00:00 32.4 14 Este 27 Nordeste 0 943.1 -0.9 39
2017-08-02 17:00:00 32.7 14 Este 30 Este 0 943.1 -0.9 40
2017-08-02 16:00:00 32.8 12 Nordeste 26 Nordeste 0 943.5 -1.2 39
2017-08-02 15:00:00 31.6 9 Nordeste 19 Nordeste 0 944 -0.8 41
2017-08-02 14:00:00 33.2 9 Este 20 Nordeste 0 944 -0.9 36
2017-08-02 13:00:00 30 9 Nordeste 16 Sudeste 0 944.7 -0.1 45
2017-08-02 12:00:00 28.4 6 Este 17 Nordeste 0 944.8 0.5 49
2017-08-02 11:00:00 29.1 8 Este 15 Nordeste 0 944.9 0.8 49
2017-08-02 10:00:00 25.2 3 Este 6 Sur 0 944.8 0.9 64
2017-08-02 09:00:00 22.8 4 Sudoeste 7 Sudoeste 0 944.3 0.5 70
2017-08-02 08:00:00 20.6 5 Noroeste 9 Sudoeste 0 944.1 0.6 77
2017-08-02 07:00:00 20.6 6 Oeste 12 Sudoeste 0 943.9 -0.1 75
2017-08-02 06:00:00 21.2 4 Sur 11 Sudoeste 0 943.8 -0.5 71
2017-08-02 05:00:00 22.3 3 Oeste 18 Sudoeste 0 943.5 -0.8 65
2017-08-02 04:00:00 23.7 6 Sudoeste 14 Oeste 0 944 -0.2 57
2017-08-02 03:00:00 24.7 8 Oeste 24 Oeste 0 944.3 0 52
2017-08-02 02:00:00 24.8 13 Oeste 25 Sudoeste 0 944.3 0.6 51
2017-08-02 01:00:00 23.4 6 Sudeste 37 Oeste 0.2 944.2 0.1 63
2017-08-02 00:00:00 25.6 14 Oeste 32 Oeste 0 944.3 0.9 56
2017-08-01 23:00:00 25.9 10 Este 23 Este 0 943.7 1.6 54
2017-08-01 22:00:00 26.8 6 Oeste 24 Sur 0 944.1 3.1 62
2017-08-01 21:00:00 27.2 9 Sudeste 33 Sur 0 943.4 1.9 61
2017-08-01 20:00:00 31.1 6 Este 17 Este 0 942.1 0.9 33
2017-08-01 19:00:00 31.6 9 Sudeste 24 Este 0 941 -0.3 35
2017-08-01 18:00:00 33.4 11 Sudeste 20 Sudeste 0 941.5 -0.2 29
2017-08-01 17:00:00 33 9 Nordeste 18 Este 0 941.2 -0.3 27
2017-08-01 16:00:00 32.9 10 Este 20 Nordeste 0 941.3 0.3 30
2017-08-01 15:00:00 31.7 12 Este 23 Este 0 941.7 1.5 31
2017-08-01 14:00:00 29.6 9 Nordeste 23 Nordeste 0 941.5 0.8 39
2017-08-01 13:00:00 30.3 10 Este 16 Este 0 941 0.6 45
2017-08-01 12:00:00 27.9 11 Este 22 Este 0 940.2 -0.1 56
2017-08-01 11:00:00 28.3 6 Este 14 Este 0 940.7 0.7 57
2017-08-01 10:00:00 27.2 4 Nordeste 8 Este 0 940.4 0.8 57
2017-08-01 09:00:00 23 2 Nordeste 12 Oeste 0 940.3 1.5 63
2017-08-01 08:00:00 20.8 6 Oeste 13 Oeste 0 940 0.9 64
2017-08-01 07:00:00 20 2 Oeste 8 Este 0 939.6 1 79
2017-08-01 06:00:00 20.5 4 Noroeste 10 Oeste 0 938.8 -0.2 76
2017-08-01 05:00:00 21.1 5 Noroeste 11 Noroeste 0 939.1 0.5 73
2017-08-01 04:00:00 21.4 5 Oeste 8 Oeste 0 938.6 -0.2 73
2017-08-01 03:00:00 21.7 3 Noroeste 13 Oeste 0 939 -0.2 71
2017-08-01 02:00:00 23.6 9 Oeste 21 Oeste 0 938.6 -0.4 63
2017-08-01 01:00:00 23.7 8 Oeste 15 Sudoeste 0 938.8 0.6 69
2017-08-01 00:00:00 24.5 9 Oeste 20 Sudoeste 0 939.2 1.9 63
2017-07-31 23:00:00 25.8 10 Sudoeste 25 Sudoeste 0 939 2.6 50
2017-07-31 22:00:00 27.3 13 Sudoeste 26 Sudoeste 0 938.2 2.3 49
2017-07-31 21:00:00 29.1 8 Este 24 Este 0 937.3 1.3 52
2017-07-31 20:00:00 31.4 13 Este 25 Este 0 936.4 0.1 44
2017-07-31 19:00:00 33.7 16 Nordeste 28 Nordeste 0 935.9 -1 36
2017-07-31 18:00:00 35.8 10 Este 39 Nordeste 0 936 -1.3 22
2017-07-31 17:00:00 36 14 Este 35 Este 0 936.3 -1.6 28
2017-07-31 16:00:00 36.5 15 Este 32 Este 0 936.9 -1.4 23
2017-07-31 15:00:00 36.5 10 Nordeste 24 Este 0 937.3 -1.2 21
2017-07-31 14:00:00 34.9 12 Este 23 Sudeste 0 937.9 -0.7 22
2017-07-31 13:00:00 34.4 8 Este 16 Este 0 938.3 -0.4 23
2017-07-31 12:00:00 33.2 8 Este 17 Este 0 938.5 -0.3 23
2017-07-31 11:00:00 31.5 8 Este 16 Sudeste 0 938.6 -0.1 28
2017-07-31 10:00:00 28.6 4 Este 12 Sudoeste 0 938.7 0.1 28
2017-07-31 09:00:00 23.7 8 Sudoeste 17 Sudoeste 0 938.8 0.3 39
2017-07-31 08:00:00 20.1 6 Sudoeste 13 Sudoeste 0 938.7 0.4 55
2017-07-31 07:00:00 19.1 8 Oeste 12 Oeste 0 938.6 -0.4 53
2017-07-31 06:00:00 18.5 4 Noroeste 10 Sudoeste 0 938.5 -0.8 58
2017-07-31 05:00:00 20.2 3 Sur 9 Oeste 0 938.3 -1.2 51
2017-07-31 04:00:00 22.1 3 Sudoeste 14 Oeste 0 939 -0.8 43
2017-07-31 03:00:00 23.1 9 Oeste 19 Sudoeste 0 939.3 -0.6 40
2017-07-31 02:00:00 24.8 10 Sudoeste 24 Oeste 0 939.5 0 36
2017-07-31 01:00:00 26.5 16 Oeste 28 Sudoeste 0 939.8 1 31
2017-07-31 00:00:00 27.4 13 Oeste 22 Oeste 0 939.9 1.5 29
2017-07-30 23:00:00 28.9 9 Sudoeste 17 Sudoeste 0 939.5 1.5 22
2017-07-30 22:00:00 30.7 10 Oeste 19 Oeste 0 938.8 0.8 18
2017-07-30 21:00:00 32.8 8 Oeste 19 Sur 0 938.4 0.2 13
2017-07-30 20:00:00 35.9 8 Sur 21 Sur 0 938 -0.2 11
2017-07-30 19:00:00 37.4 11 Sudeste 32 Sur 0 938 -0.8 11
2017-07-30 18:00:00 38.7 12 Sudeste 33 Sudeste 0 938.2 -1.2 11
2017-07-30 17:00:00 40.3 14 Sudeste 32 Sudeste 0 938.2 -2 11
2017-07-30 16:00:00 40.9 11 Sur 28 Sur 0 938.8 -2 10
2017-07-30 15:00:00 41.3 7 Sudeste 24 Sur 0 939.4 -2.1 9
2017-07-30 14:00:00 40.3 9 Sudeste 33 Sudeste 0 940.2 -1.4 10
2017-07-30 13:00:00 38 8 Este 20 Este 0 940.8 -0.9 14
2017-07-30 12:00:00 37.2 6 Este 13 Este 0 941.5 -0.3 14
2017-07-30 11:00:00 35.2 6 Sudeste 14 Oeste 0 941.6 -0.3 14
2017-07-30 10:00:00 29.8 9 Sudoeste 17 Oeste 0 941.7 -0.1 22
2017-07-30 09:00:00 25.4 11 Sudoeste 17 Sudoeste 0 941.8 0.3 27
2017-07-30 08:00:00 19.2 3 Sudoeste -- -- 0 941.9 0.1 57
2017-07-30 07:00:00 18.2 2 Sudoeste 8 Sudoeste 0 941.8 -0.4 55
2017-07-30 06:00:00 22.6 10 Oeste 19 Oeste 0 941.5 -1.1 26
2017-07-30 05:00:00 20.7 7 Oeste 16 Oeste 0 941.8 -1.2 35
2017-07-30 04:00:00 20 6 Oeste 19 Oeste 0 942.2 -0.8 47
2017-07-30 03:00:00 21.9 10 Oeste 15 Oeste 0 942.6 -0.5 45
2017-07-30 02:00:00 20.8 4 Oeste 8 Oeste 0 943 0 54
2017-07-30 01:00:00 23.2 3 Sudoeste 13 Sudoeste 0 943 0.4 49
2017-07-30 00:00:00 26.4 2 Sur 19 Oeste 0 943.1 0.9 44
2017-07-29 23:00:00 28.3 11 Oeste 25 Oeste 0 943 1.2 39
2017-07-29 22:00:00 29.5 12 Oeste 22 Oeste 0 942.6 1 32
2017-07-29 21:00:00 30.9 5 Oeste 15 Oeste 0 942.2 0.4 28
2017-07-29 20:00:00 33.8 6 Sudoeste 19 Sur 0 941.8 -0.2 21
2017-07-29 19:00:00 35.5 10 Sur 22 Sur 0 941.6 -0.8 19
2017-07-29 18:00:00 36.3 10 Este 32 Este 0 941.8 -1.2 21
2017-07-29 17:00:00 36.7 13 Este 32 Nordeste 0 942 -1.6 24
2017-07-29 16:00:00 36.6 13 Nordeste 26 Nordeste 0 942.4 -1.7 20
2017-07-29 15:00:00 37.3 11 Nordeste 25 Este 0 943 -1.3 17
2017-07-29 14:00:00 37.1 10 Este 19 Nordeste 0 943.6 -0.9 17
2017-07-29 13:00:00 35.8 10 Este 18 Nordeste 0 944.1 -0.5 16
2017-07-29 12:00:00 34.5 9 Este 15 Sudeste 0 944.3 -0.2 21
2017-07-29 11:00:00 32.5 5 Este 10 Este 0 944.5 0.5 24
2017-07-29 10:00:00 28.8 4 Nordeste 8 Nordeste 0 944.6 0.7 33
2017-07-29 09:00:00 23.5 3 Este 6 Nordeste 0 944.5 0.9 45
2017-07-29 08:00:00 17.4 3 Norte 6 Oeste 0 944 0.5 65
2017-07-29 07:00:00 16.2 0 Calma 8 Sudoeste 0 943.9 0.4 68
2017-07-29 06:00:00 17.1 3 Sudoeste 10 Oeste 0 943.6 -0.1 66
2017-07-29 05:00:00 18.5 4 Sudoeste 12 Sudoeste 0 943.5 -0.3 62
2017-07-29 04:00:00 20 3 Noroeste 10 Sudoeste 0 943.5 -0.5 58
2017-07-29 03:00:00 22.2 2 Sur 13 Sudoeste 0 943.7 -0.3 49
2017-07-29 02:00:00 24.2 8 Oeste 16 Oeste 0 943.8 0.2 43
2017-07-29 01:00:00 25.3 6 Sudoeste 14 Sudoeste 0 944 1.2 40
2017-07-29 00:00:00 27.4 9 Sudoeste 21 Oeste 0 944 1.7 32
2017-07-28 23:00:00 28.8 14 Oeste 25 Oeste 0 943.6 1.7 30
2017-07-28 22:00:00 30 13 Oeste 24 Oeste 0 942.8 1.3 28
2017-07-28 21:00:00 31.6 8 Sudoeste 23 Sur 0 942.3 0.9 22
2017-07-28 20:00:00 34 8 Sur 24 Sur 0 941.9 0.1 19
2017-07-28 19:00:00 36.1 12 Sur 22 Sur 0 941.5 -0.5 17
2017-07-28 18:00:00 36.3 14 Este 33 Este 0 941.4 -0.9 19
2017-07-28 17:00:00 37 16 Este 29 Este 0 941.8 -0.9 18
2017-07-28 16:00:00 37.4 15 Este 33 Nordeste 0 942 -1.1 17
2017-07-28 15:00:00 37.7 19 Este 30 Este 0 942.3 -1 16
2017-07-28 14:00:00 38.5 12 Este 21 Este 0 942.7 -0.6 13
2017-07-28 13:00:00 37.2 10 Este 18 Este 0 943.1 -0.3 15
2017-07-28 12:00:00 35 8 Este 14 Nordeste 0 943.3 0.1 19
2017-07-28 11:00:00 34.3 3 Sudeste 9 Sudeste 0 943.3 0.5 19
2017-07-28 10:00:00 30.1 3 Este 7 Este 0 943.4 0.7 29
2017-07-28 09:00:00 24.5 2 Sudeste 6 Sudoeste 0 943.2 0.8 47
2017-07-28 08:00:00 19.3 3 Oeste 12 Oeste 0 942.8 0.8 56
2017-07-28 07:00:00 19.6 5 Oeste 15 Sudoeste 0 942.7 0.4 49
2017-07-28 06:00:00 18.2 6 Oeste 11 Oeste 0 942.4 -0.2 59
2017-07-28 05:00:00 19.7 5 Oeste 17 Oeste 0 942 -0.6 55
2017-07-28 04:00:00 21 9 Oeste 16 Oeste 0 942.3 0.1 49
2017-07-28 03:00:00 20.4 6 Sudoeste 9 Oeste 0 942.6 0.3 56
2017-07-28 02:00:00 22.5 4 Noroeste 17 Sudoeste 0 942.6 0.3 48
2017-07-28 01:00:00 24.4 12 Sudoeste 26 Sudoeste 0 942.2 0.3 42
2017-07-28 00:00:00 25.4 15 Sudoeste 24 Sudoeste 0 942.3 1 42
2017-07-27 23:00:00 27.3 14 Oeste 22 Oeste 0 942.3 1.4 39
2017-07-27 22:00:00 28.6 12 Oeste 25 Sudoeste 0 941.9 1.2 34
2017-07-27 21:00:00 30.5 14 Oeste 25 Oeste 0 941.3 0.5 29
2017-07-27 20:00:00 33 10 Sudoeste 26 Sudoeste 0 940.9 -0.1 20
2017-07-27 19:00:00 34.9 10 Sur 25 Sur 0 940.7 -0.7 18
2017-07-27 18:00:00 36.3 12 Sur 26 Este 0 940.8 -1.1 17
2017-07-27 17:00:00 36.5 14 Este 30 Sudeste 0 941 -1.5 20
2017-07-27 16:00:00 37.1 6 Este 30 Sudeste 0 941.4 -1.6 18
2017-07-27 15:00:00 36.3 10 Este 23 Este 0 941.9 -1.7 26
2017-07-27 14:00:00 34.7 11 Este 19 Este 0 942.5 -1.2 30
2017-07-27 13:00:00 32.8 8 Este 13 Este 0 943 -0.9 32
2017-07-27 12:00:00 31.7 5 Este 12 Nordeste 0 943.6 -0.3 35
2017-07-27 11:00:00 29.5 5 Este 10 Este 0 943.7 0.2 40
2017-07-27 10:00:00 26.7 4 Este 7 Este 0 943.9 0.9 50
2017-07-27 09:00:00 23.7 2 Nordeste 5 Este 0 943.9 1 61
2017-07-27 08:00:00 18.7 0 Calma 5 Noroeste 0 943.5 0.7 74
2017-07-27 07:00:00 17.1 0 Calma 4 Noroeste 0 943 0.2 77
2017-07-27 06:00:00 18.2 4 Oeste 13 Oeste 0 942.9 -0.1 71
2017-07-27 05:00:00 18.5 2 Sudoeste 6 Noroeste 0 942.8 -0.2 70
2017-07-27 04:00:00 20.3 6 Oeste 9 Oeste 0 942.8 -0.4 64
2017-07-27 03:00:00 21.8 3 Noroeste 16 Sudoeste 0 943 0 58
2017-07-27 02:00:00 23.7 9 Sudoeste 14 Sudoeste 0 943 0.2 51
2017-07-27 01:00:00 24.6 7 Sudoeste 14 Sudoeste 0 943.2 1.2 49
2017-07-27 00:00:00 25.8 6 Sudoeste 19 Oeste 0 943 1.7 45
2017-07-26 23:00:00 26.8 13 Oeste 20 Oeste 0 942.8 2.4 43
2017-07-26 22:00:00 27.5 10 Oeste 22 Sudoeste 0 942 2.1 46
2017-07-26 21:00:00 29 10 Sudoeste 22 Sur 0 941.3 1.3 44
2017-07-26 20:00:00 31 13 Sudoeste 28 Sur 0 940.4 -0.1 38
2017-07-26 19:00:00 32.7 8 Sudeste 21 Sur 0 939.9 -1.1 31
2017-07-26 18:00:00 33.9 8 Este 18 Este 0 940 -1.5 23
2017-07-26 17:00:00 34.4 7 Sudeste 22 Este 0 940.5 -1.6 22
2017-07-26 16:00:00 34.6 6 Este 22 Este 0 941 -1.4 22
2017-07-26 15:00:00 33.4 9 Este 22 Este 0 941.5 -1.1 24
2017-07-26 14:00:00 33.4 13 Este 24 Este 0 942.1 -0.4 25
2017-07-26 13:00:00 31.5 12 Este 24 Sudeste 0 942.4 -0.4 33
2017-07-26 12:00:00 29.9 8 Sudeste 14 Sudeste 0 942.6 0 42
2017-07-26 11:00:00 27.4 5 Este 11 Este 0 942.5 0.3 53
2017-07-26 10:00:00 24.7 5 Este 9 Sur 0 942.8 0.8 65
2017-07-26 09:00:00 22.4 4 Sudeste 9 Sudeste 0 942.6 0.8 76
2017-07-26 08:00:00 21.5 4 Sur 6 Sudoeste 0 942.2 0.2 80
2017-07-26 07:00:00 21.2 4 Nordeste 8 Nordeste 0 942 -0.1 80
2017-07-26 06:00:00 21.4 3 Nordeste 12 Nordeste 0 941.8 -0.7 79
2017-07-26 05:00:00 21.9 2 Nordeste 9 Sudoeste 0 942 -0.7 78
2017-07-26 04:00:00 21.6 0 Calma 4 Sur 0 942.1 -0.1 80
2017-07-26 03:00:00 21.4 3 Norte 14 Nordeste 0 942.5 0.7 81
2017-07-26 02:00:00 21.4 8 Nordeste 15 Nordeste 0 942.7 1 79
2017-07-26 01:00:00 21.7 5 Sudoeste 11 Sur 0 942.2 1.2 78
2017-07-26 00:00:00 21.9 4 Norte 10 Nordeste 0 941.8 1.5 75
2017-07-25 23:00:00 23.3 5 Nordeste 12 Nordeste 0 941.7 2 70
2017-07-25 22:00:00 25 5 Nordeste 11 Este 0 941 1.3 61
2017-07-25 21:00:00 27.2 4 Sur 22 Sur 0 940.3 0.3 52
2017-07-25 20:00:00 28.9 10 Sur 21 Sudoeste 0 939.7 -0.3 46
2017-07-25 19:00:00 29 8 Este 26 Este 0 939.7 -0.6 46
2017-07-25 18:00:00 30.6 13 Este 30 Este 0 940 -0.8 42
2017-07-25 17:00:00 31 14 Este 33 Nordeste 0 940 -1.6 41
2017-07-25 16:00:00 31.8 17 Este 31 Nordeste 0 940.3 -2.1 39
2017-07-25 15:00:00 32.1 13 Este 26 Este 0 940.8 -2.2 36
2017-07-25 14:00:00 31.2 10 Este 19 Nordeste 0 941.6 -1.6 39
2017-07-25 13:00:00 29.8 5 Norte 17 Este 0 942.4 -1 41
2017-07-25 12:00:00 28.8 6 Sudeste 18 Este 0 943 -0.3 45
2017-07-25 11:00:00 27.6 8 Este 19 Nordeste 0 943.2 0.1 48
2017-07-25 10:00:00 25.9 6 Este 11 Sudeste 0 943.4 0.5 53
2017-07-25 09:00:00 22.8 3 Este 5 Nordeste 0 943.3 0.3 57
2017-07-25 08:00:00 19.2 0 Calma 10 Noroeste 0 943.1 0 73
2017-07-25 07:00:00 17.9 5 Noroeste 10 Oeste 0 942.9 -0.6 76
2017-07-25 06:00:00 17.8 4 Noroeste 9 Norte 0 943 -0.6 80
2017-07-25 05:00:00 19.5 4 Norte 13 Nordeste 0 943.1 -0.2 79
2017-07-25 04:00:00 20.1 5 Norte 16 Norte 0 943.5 0.1 71
2017-07-25 03:00:00 19.4 5 Nordeste 13 Nordeste 0 943.6 -0.1 69
2017-07-25 02:00:00 19.8 3 Nordeste 9 Oeste 0 943.3 -0.3 58
2017-07-25 01:00:00 20.5 3 Sudoeste 6 Sudoeste 0 943.4 0.7 63
2017-07-25 00:00:00 22.4 2 Oeste 11 Nordeste 0 943.7 1.5 57
2017-07-24 23:00:00 25.4 6 Nordeste 14 Sudoeste 0 943.6 1.9 50
2017-07-24 22:00:00 28 7 Oeste 16 Oeste 0 942.7 1 22
2017-07-24 21:00:00 29.4 3 Noroeste 22 Sur 0 942.2 0.9 23
2017-07-24 20:00:00 32.5 9 Sur 24 Sur 0 941.7 0.1 22
2017-07-24 19:00:00 34.2 12 Sur 28 Sur 0 941.7 -0.3 23
2017-07-24 18:00:00 35.3 7 Sur 27 Este 0 941.3 -1.3 23
2017-07-24 17:00:00 35.9 12 Este 28 Este 0 941.6 -1.5 16
2017-07-24 16:00:00 37.5 9 Este 26 Este 0 942 -1.8 14
2017-07-24 15:00:00 36.4 8 Nordeste 22 Sudeste 0 942.6 -1.7 13
2017-07-24 14:00:00 35.5 8 Este 22 Este 0 943.1 -1.3 15
2017-07-24 13:00:00 34.4 8 Este 23 Este 0 943.8 -0.7 17
2017-07-24 12:00:00 32.5 13 Este 23 Nordeste 0 944.3 0 23
2017-07-24 11:00:00 31.4 8 Este 13 Este 0 944.4 0.4 25
2017-07-24 10:00:00 28.2 5 Este 9 Este 0 944.5 0.5 28
2017-07-24 09:00:00 24.6 2 Norte 13 Sudoeste 0 944.3 0.3 35
2017-07-24 08:00:00 21.3 11 Sudoeste 18 Sudoeste 0 944 0.1 33
2017-07-24 07:00:00 19 9 Sudoeste 15 Sudoeste 0 944 0 39
2017-07-24 06:00:00 16 3 Oeste 17 Oeste 0 944 -0.5 74
2017-07-24 05:00:00 16.1 6 Oeste 13 Oeste 0 943.9 -0.9 71
2017-07-24 04:00:00 17 3 Oeste 9 Oeste 0 944 -1.3 68
2017-07-24 03:00:00 19 5 Oeste 11 Sur 0 944.5 -0.5 67
2017-07-24 02:00:00 21.3 6 Sudoeste 13 Oeste 0 944.8 -0.1 59
2017-07-24 01:00:00 21.8 7 Oeste 14 Sudoeste 0 945.3 1.1 58
2017-07-24 00:00:00 24.3 9 Sudoeste 20 Sudoeste 0 945 1.5 49
2017-07-23 23:00:00 25.3 12 Oeste 24 Oeste 0 944.9 2 45
2017-07-23 22:00:00 26 5 Noroeste 16 Este 0 944.2 1.6 53
2017-07-23 21:00:00 29.1 9 Este 22 Nordeste 0 943.5 0.8 42
2017-07-23 20:00:00 31.4 9 Nordeste 24 Nordeste 0 942.9 -0.3 34
2017-07-23 19:00:00 32.5 13 Este 23 Nordeste 0 942.6 -1.1 30
2017-07-23 18:00:00 33 10 Este 23 Sudeste 0 942.7 -1.9 26
2017-07-23 17:00:00 33.6 11 Este 24 Este 0 943.2 -1.9 25
2017-07-23 16:00:00 33.5 10 Este 25 Nordeste 0 943.7 -1.6 26
2017-07-23 15:00:00 33.5 11 Este 24 Nordeste 0 944.6 -0.9 28
2017-07-23 14:00:00 33 12 Este 25 Nordeste 0 945.1 -0.2 29
2017-07-23 13:00:00 31.7 9 Este 17 Este 0 945.3 0.5 32
2017-07-23 12:00:00 29.1 7 Nordeste 20 Este 0 945.5 0.9 38
2017-07-23 11:00:00 27.9 5 Nordeste 13 Este 0 945.3 1.3 43
2017-07-23 10:00:00 26.3 5 Este 10 Este 0 944.8 1.4 42
2017-07-23 09:00:00 23.5 3 Nordeste 5 Noroeste 0 944.6 1.1 54
2017-07-23 08:00:00 20.2 5 Oeste 9 Este 0 944 0.6 65
2017-07-23 07:00:00 20 6 Sudoeste 16 Oeste 0 943.4 0.3 64
2017-07-23 06:00:00 18.7 3 Este 10 Oeste 0 943.5 0.3 70
2017-07-23 05:00:00 18.3 2 Norte 8 Noroeste 0 943.4 -0.8 73
2017-07-23 04:00:00 19.3 4 Oeste 8 Oeste 0 943.1 -1.3 69
2017-07-23 03:00:00 21 5 Noroeste 12 Sudeste 0 943.2 -0.9 56
2017-07-23 02:00:00 23.2 8 Oeste 18 Oeste 0 944.2 0.6 47
2017-07-23 01:00:00 23.8 11 Oeste 18 Oeste 0 944.4 1.9 48
2017-07-23 00:00:00 24.5 9 Oeste 22 Oeste 0 944.1 2.4 50
2017-07-22 23:00:00 25.6 12 Oeste 19 Sudoeste 0 943.6 2.4 52
2017-07-22 22:00:00 25.7 4 Noroeste 12 Nordeste 0 942.5 1.9 59
2017-07-22 21:00:00 28.4 9 Este 19 Nordeste 0 941.7 1.2 51
2017-07-22 20:00:00 29.8 9 Este 23 Sudeste 0 941.2 0.6 44
2017-07-22 19:00:00 31.1 10 Este 25 Este 0 940.6 -0.1 37
2017-07-22 18:00:00 32.4 13 Este 29 Este 0 940.5 -0.4 31
2017-07-22 17:00:00 32.7 15 Este 27 Este 0 940.6 -0.8 31
2017-07-22 16:00:00 33.5 12 Nordeste 31 Este 0 940.7 -1.1 30
2017-07-22 15:00:00 33.2 12 Este 24 Este 0 940.9 -1 30
2017-07-22 14:00:00 32.3 12 Este 23 Este 0 941.4 -0.5 33
2017-07-22 13:00:00 32.2 10 Este 21 Este 0 941.8 0.1 32
2017-07-22 12:00:00 30.3 8 Este 20 Este 0 941.9 0.5 37
2017-07-22 11:00:00 28.9 5 Este 13 Este 0 941.9 0.8 37
2017-07-22 10:00:00 27 6 Sudeste 13 Este 0 941.7 0.9 47
2017-07-22 09:00:00 23.5 6 Sur 14 Sudoeste 0 941.4 1.1 60
2017-07-22 08:00:00 19.2 10 Oeste 16 Sudoeste 0 941.1 1.2 71
2017-07-22 07:00:00 16.4 4 Oeste 7 Sudoeste 0 940.8 0.6 83
2017-07-22 06:00:00 16.7 4 Noroeste 7 Sudoeste 0 940.3 -0.1 82
2017-07-22 05:00:00 17.6 3 Oeste 6 Sudoeste 0 939.9 -0.9 79
2017-07-22 04:00:00 18.4 3 Sudoeste 6 Oeste 0 940.2 -0.6 77
2017-07-22 03:00:00 19.5 3 Sudoeste 6 Sudoeste 0 940.4 -0.1 73
2017-07-22 02:00:00 20.5 3 Noroeste 9 Nordeste 0 940.8 0.8 71
2017-07-22 01:00:00 22.7 4 Nordeste 11 Sudoeste 0 940.8 1.5 62
2017-07-22 00:00:00 24.5 8 Oeste 13 Oeste 0 940.5 1.9 55
2017-07-21 23:00:00 25.6 10 Sudoeste 16 Sudoeste 0 940 2 53
2017-07-21 22:00:00 26.5 7 Oeste 17 Sudoeste 0 939.3 1.9 51
2017-07-21 21:00:00 28.2 9 Sudoeste 18 Sudoeste 0 938.6 1.1 47
2017-07-21 20:00:00 29.3 13 Este 28 Este 0 938 0.6 46
2017-07-21 19:00:00 30.4 10 Este 26 Este 0 937.4 -0.3 39
2017-07-21 18:00:00 31.8 14 Este 28 Este 0 937.5 -0.7 32
2017-07-21 17:00:00 32.9 10 Este 23 Este 0 937.4 -1.3 27
2017-07-21 16:00:00 33.2 12 Este 24 Este 0 937.7 -1.6 26
2017-07-21 15:00:00 32.7 6 Este 23 Este 0 938.2 -1.4 30
2017-07-21 14:00:00 30.9 9 Este 22 Este 0 938.7 -0.9 33
2017-07-21 13:00:00 30.7 10 Sudeste 19 Este 0 939.3 -0.3 35
2017-07-21 12:00:00 28 6 Este 17 Nordeste 0 939.6 0 44
2017-07-21 11:00:00 28.2 7 Este 15 Este 0 939.6 0.4 46
2017-07-21 10:00:00 25.5 6 Este 15 Este 0 939.6 1 59
2017-07-21 09:00:00 22.2 3 Nordeste 7 Sudeste 0 939.6 1 76
2017-07-21 08:00:00 20.9 0 Calma 5 Sudoeste 0 939.2 0.5 86
2017-07-21 07:00:00 20.2 0 Calma 5 Este 0 938.6 -0.5 83
2017-07-21 06:00:00 20.8 3 Noroeste 8 Nordeste 0 938.6 -1.1 85
2017-07-21 05:00:00 20.6 3 Norte 6 Norte 0 938.7 -0.7 85
2017-07-21 04:00:00 21.1 3 Norte 12 Este 0 939.1 -0.3 84
2017-07-21 03:00:00 21.4 5 Nordeste 12 Nordeste 0 939.7 0.1 84
2017-07-21 02:00:00 21.7 7 Nordeste 14 Nordeste 0 939.4 0 83
2017-07-21 01:00:00 21.6 4 Nordeste 11 Nordeste 0 939.4 0.7 80
2017-07-21 00:00:00 22.5 5 Norte 13 Nordeste 0 939.6 1.2 74
2017-07-20 23:00:00 23.8 6 Nordeste 14 Nordeste 0 939.4 1.5 66
2017-07-20 22:00:00 24.9 3 Nordeste 10 Este 0 938.7 1.1 54
2017-07-20 21:00:00 27.5 4 Sudoeste 15 Sudeste 0 938.4 0.7 37
2017-07-20 20:00:00 29.5 5 Sudeste 20 Sudeste 0 937.9 0.1 37
2017-07-20 19:00:00 30.2 10 Este 29 Nordeste 0 937.6 -0.2 40
2017-07-20 18:00:00 30.3 15 Este 31 Sudeste 0 937.7 -0.8 40
2017-07-20 17:00:00 31.1 15 Este 38 Este 0 937.8 -1.5 40
2017-07-20 16:00:00 35.5 14 Sudeste 30 Sudeste 0 937.8 -2.3 18
2017-07-20 15:00:00 35.7 8 Sudeste 21 Sudeste 0 938.5 -2 16
2017-07-20 14:00:00 34.9 10 Sudeste 20 Sur 0 939.3 -1.3 17
2017-07-20 13:00:00 33.2 5 Este 19 Sudeste 0 940.1 -0.8 19
2017-07-20 12:00:00 32.4 8 Sudeste 19 Este 0 940.5 -0.2 23
2017-07-20 11:00:00 31.4 9 Este 18 Sudeste 0 940.6 0.4 23
2017-07-20 10:00:00 29.7 4 Sudeste 8 Sudeste 0 940.9 1.1 28
2017-07-20 09:00:00 25.5 4 Sudoeste 17 Sudoeste 0 940.7 1.3 38
2017-07-20 08:00:00 22.1 5 Sudeste 15 Sudoeste 0 940.2 0.7 50
2017-07-20 07:00:00 21.5 9 Sudoeste 19 Sur 0 939.8 0.1 47
2017-07-20 06:00:00 20.4 8 Sudoeste 14 Sudoeste 0 939.4 -0.6 51
2017-07-20 05:00:00 17.8 5 Oeste 10 Oeste 0 939.5 -0.6 69
2017-07-20 04:00:00 18.6 4 Oeste 12 Sudoeste 0 939.7 -0.6 70
2017-07-20 03:00:00 19 4 Noroeste 8 Noroeste 0 940 -0.5 67
2017-07-20 02:00:00 19.7 2 Noroeste 9 Noroeste 0 940.1 -0.3 69
2017-07-20 01:00:00 21 5 Oeste 9 Noroeste 0 940.3 0.6 67
2017-07-20 00:00:00 22.2 5 Oeste 8 Oeste 0 940.5 1.3 68
2017-07-19 23:00:00 23.9 3 Noroeste 6 Norte 0 940.4 1.6 63
2017-07-19 22:00:00 26.3 3 Norte 15 Norte 0 939.7 1.1 55
2017-07-19 21:00:00 28.7 7 Nordeste 17 Nordeste 0 939.2 0.5 47
2017-07-19 20:00:00 31.1 8 Este 24 Este 0 938.8 -0.3 40
2017-07-19 19:00:00 32.5 13 Este 23 Este 0 938.6 -1.1 34
2017-07-19 18:00:00 32.8 11 Este 24 Nordeste 0 938.7 -1.6 32
2017-07-19 17:00:00 34.1 13 Este 28 Nordeste 0 939.1 -1.7 27
2017-07-19 16:00:00 33.6 12 Nordeste 30 Nordeste 0 939.7 -1.7 26
2017-07-19 15:00:00 32.8 11 Este 22 Este 0 940.3 -1.5 24
2017-07-19 14:00:00 33.8 7 Nordeste 19 Este 0 940.8 -1.3 17
2017-07-19 13:00:00 33 6 Este 17 Este 0 941.4 -0.5 14
2017-07-19 12:00:00 31.2 7 Nordeste 17 Este 0 941.8 0.2 18
2017-07-19 11:00:00 30.4 9 Este 15 Este 0 942.1 0.7 19
2017-07-19 10:00:00 27.8 2 Nordeste 6 Este 0 941.9 1 26
2017-07-19 09:00:00 23.9 5 Sudoeste 15 Oeste 0 941.6 0.4 34
2017-07-19 08:00:00 18.5 5 Oeste 14 Oeste 0 941.4 -0.6 50
2017-07-19 07:00:00 19.9 7 Oeste 13 Oeste 0 940.9 -1.7 46
2017-07-19 06:00:00 19 5 Noroeste 12 Sudoeste 0 941.2 -2 59
2017-07-19 05:00:00 19.6 3 Oeste 10 Nordeste 0 942 -1 57
2017-07-19 04:00:00 20.4 3 Sudoeste 6 Oeste 0 942.6 -0.6 54
2017-07-19 03:00:00 21.3 3 Noroeste 9 Norte 0 943.2 0.6 53
2017-07-19 02:00:00 22 4 Norte 10 Sudoeste 0 943 0.7 50
2017-07-19 01:00:00 22.7 7 Sudoeste 15 Oeste 0 943.2 1.4 48
2017-07-19 00:00:00 21.7 4 Nordeste 9 Nordeste 0 942.6 1 53